Time;durP1;ratioP1;P1;durP2;ratioP2;P2;SDS_P1;SDS_P2;PMS_P1;PMS_P2;Temp;Humidity;BMP_temperature;BMP_pressure;BME280_temperature;BME280_humidity;BME280_pressure;Samples;Min_cycle;Max_cycle;Signal;HPM_P1;HPM_P2
2020/12/03 00:01:11;;;;;;;45.47;16.90;;;;;;;;;;4363983;32;20194;-81
2020/12/03 00:03:39;;;;;;;46.30;17.37;;;;;;;;;;4363551;32;20633;-81
2020/12/03 00:06:11;;;;;;;38.30;16.17;;;;;;;;;;4363103;32;20171;-81
2020/12/03 00:08:38;;;;;;;40.60;15.90;;;;;;;;;;4363829;32;20226;-82
2020/12/03 00:11:04;;;;;;;33.70;15.43;;;;;;;;;;4363376;32;20171;-81
2020/12/03 00:13:32;;;;;;;43.83;15.20;;;;;;;;;;4362988;32;20175;-81
2020/12/03 00:15:59;;;;;;;34.57;13.93;;;;;;;;;;4363596;32;20186;-81
2020/12/03 00:18:25;;;;;;;34.97;14.67;;;;;;;;;;4363175;32;20182;-81
2020/12/03 00:20:50;;;;;;;35.00;14.33;;;;;;;;;;4363212;32;20197;-80
2020/12/03 00:23:15;;;;;;;37.87;13.57;;;;;;;;;;4362876;32;20190;-80
2020/12/03 00:25:40;;;;;;;33.60;13.23;;;;;;;;;;4377076;32;20173;-81
2020/12/03 00:28:06;;;;;;;34.37;14.03;;;;;;;;;;4376911;32;20155;-81
2020/12/03 00:30:31;;;;;;;34.20;12.87;;;;;;;;;;4363061;32;20575;-81
2020/12/03 00:32:56;;;;;;;33.33;13.37;;;;;;;;;;4376589;32;20191;-81
2020/12/03 00:35:23;;;;;;;28.17;11.40;;;;;;;;;;4363168;32;20592;-81
2020/12/03 00:37:49;;;;;;;26.93;11.83;;;;;;;;;;4363297;32;20175;-82
2020/12/03 00:40:14;;;;;;;30.33;12.33;;;;;;;;;;4362576;32;20526;-81
2020/12/03 00:42:39;;;;;;;19.40;11.30;;;;;;;;;;4376331;32;20162;-81
2020/12/03 00:45:09;;;;;;;27.30;11.87;;;;;;;;;;4362804;32;20170;-82
2020/12/03 00:47:34;;;;;;;27.63;11.03;;;;;;;;;;4363212;32;20251;-81
2020/12/03 00:50:00;;;;;;;29.43;12.30;;;;;;;;;;4363321;32;20628;-81
2020/12/03 00:52:25;;;;;;;25.70;11.40;;;;;;;;;;4362644;32;20592;-81
2020/12/03 00:54:50;;;;;;;19.90;9.90;;;;;;;;;;4363157;32;20622;-82
2020/12/03 00:57:19;;;;;;;21.93;10.07;;;;;;;;;;4363085;32;20163;-81
2020/12/03 00:59:44;;;;;;;28.23;10.53;;;;;;;;;;4362445;32;20210;-81
2020/12/03 01:02:13;;;;;;;21.00;9.67;;;;;;;;;;4362645;32;20209;-81
2020/12/03 01:04:39;;;;;;;20.53;9.73;;;;;;;;;;4377263;32;20139;-81
2020/12/03 01:07:05;;;;;;;21.00;9.27;;;;;;;;;;4376682;32;20181;-81
2020/12/03 01:09:31;;;;;;;24.30;8.87;;;;;;;;;;4362328;32;20229;-80
2020/12/03 01:11:56;;;;;;;19.63;9.13;;;;;;;;;;4362129;32;20175;-81
2020/12/03 01:14:21;;;;;;;23.97;9.10;;;;;;;;;;4362527;32;20174;-81
2020/12/03 01:16:46;;;;;;;21.43;8.40;;;;;;;;;;4363390;32;20661;-80
2020/12/03 01:19:12;;;;;;;18.37;9.67;;;;;;;;;;4362629;32;20171;-81
2020/12/03 01:21:37;;;;;;;20.83;9.20;;;;;;;;;;4362193;32;20192;-81
2020/12/03 01:24:03;;;;;;;23.63;8.33;;;;;;;;;;4362177;32;20215;-81
2020/12/03 01:26:28;;;;;;;17.00;8.73;;;;;;;;;;4362197;32;20191;-81
2020/12/03 01:28:53;;;;;;;22.93;9.33;;;;;;;;;;4362211;32;20167;-81
2020/12/03 01:31:18;;;;;;;19.80;8.70;;;;;;;;;;4362204;32;20162;-81
2020/12/03 01:33:44;;;;;;;20.43;9.63;;;;;;;;;;4361937;32;20224;-82
2020/12/03 01:36:11;;;;;;;21.90;9.40;;;;;;;;;;4361838;32;20265;-81
2020/12/03 01:38:36;;;;;;;26.03;8.80;;;;;;;;;;4361809;32;20192;-81
2020/12/03 01:41:01;;;;;;;20.37;9.10;;;;;;;;;;4362152;32;20171;-80
2020/12/03 01:43:26;;;;;;;18.33;8.83;;;;;;;;;;4361698;32;20192;-81
2020/12/03 01:45:56;;;;;;;19.10;9.30;;;;;;;;;;4361688;32;20218;-81
2020/12/03 01:48:31;;;;;;;19.73;9.10;;;;;;;;;;4362194;32;20182;-81
2020/12/03 01:50:56;;;;;;;22.20;10.13;;;;;;;;;;4361691;32;20158;-81
2020/12/03 01:53:22;;;;;;;20.47;8.93;;;;;;;;;;4362213;32;20181;-81
2020/12/03 01:55:48;;;;;;;21.80;9.00;;;;;;;;;;4362710;32;20208;-81
2020/12/03 01:58:18;;;;;;;22.53;9.10;;;;;;;;;;4362574;32;20163;-81
2020/12/03 02:00:43;;;;;;;21.10;8.80;;;;;;;;;;4362282;32;20159;-82
2020/12/03 02:03:09;;;;;;;23.83;8.90;;;;;;;;;;4361785;32;20205;-81
2020/12/03 02:05:34;;;;;;;18.63;8.97;;;;;;;;;;4361280;32;20167;-81
2020/12/03 02:07:59;;;;;;;25.13;8.97;;;;;;;;;;4361721;32;20485;-82
2020/12/03 02:10:25;;;;;;;18.87;7.80;;;;;;;;;;4375427;32;20143;-81
2020/12/03 02:12:51;;;;;;;21.30;8.73;;;;;;;;;;4361408;32;20193;-81
2020/12/03 02:15:18;;;;;;;21.03;8.50;;;;;;;;;;4375331;32;20158;-81
2020/12/03 02:17:44;;;;;;;17.43;8.63;;;;;;;;;;4375160;32;20169;-81
2020/12/03 02:20:11;;;;;;;20.80;8.50;;;;;;;;;;4361547;32;20167;-81
2020/12/03 02:22:36;;;;;;;19.43;8.50;;;;;;;;;;4361309;32;20162;-81
2020/12/03 02:25:01;;;;;;;16.57;8.53;;;;;;;;;;4361655;32;20617;-81
2020/12/03 02:27:27;;;;;;;26.40;8.43;;;;;;;;;;4361583;32;20167;-82
2020/12/03 02:29:52;;;;;;;20.77;8.00;;;;;;;;;;4361381;32;20182;-81
2020/12/03 02:32:18;;;;;;;21.03;8.77;;;;;;;;;;4361558;32;20185;-81
2020/12/03 02:34:44;;;;;;;19.07;8.50;;;;;;;;;;4361199;32;20159;-81
2020/12/03 02:37:09;;;;;;;20.37;8.47;;;;;;;;;;4361751;32;20181;-81
2020/12/03 02:39:35;;;;;;;21.97;8.53;;;;;;;;;;4361731;32;20209;-81
2020/12/03 02:42:01;;;;;;;26.00;8.93;;;;;;;;;;4375021;32;20641;-81
2020/12/03 02:44:27;;;;;;;20.40;8.73;;;;;;;;;;4361596;32;20159;-82
2020/12/03 02:46:52;;;;;;;22.43;8.33;;;;;;;;;;4361151;32;20226;-82
2020/12/03 02:49:17;;;;;;;21.80;9.33;;;;;;;;;;4361427;32;20182;-82
2020/12/03 02:51:43;;;;;;;24.53;9.50;;;;;;;;;;4361319;32;20162;-82
2020/12/03 02:54:09;;;;;;;24.70;9.80;;;;;;;;;;4376102;32;20165;-81
2020/12/03 02:56:35;;;;;;;24.90;9.60;;;;;;;;;;4364790;32;20226;-81
2020/12/03 02:59:00;;;;;;;22.80;9.80;;;;;;;;;;4364342;32;20159;-81
2020/12/03 03:01:25;;;;;;;26.50;10.70;;;;;;;;;;4364310;32;20233;-81
2020/12/03 03:03:51;;;;;;;24.33;10.17;;;;;;;;;;4364145;32;20174;-82
2020/12/03 03:06:16;;;;;;;27.60;10.40;;;;;;;;;;4364176;32;20485;-82
2020/12/03 03:08:41;;;;;;;27.97;11.63;;;;;;;;;;4364271;32;20236;-82
2020/12/03 03:11:06;;;;;;;27.07;10.80;;;;;;;;;;4364231;32;20496;-82
2020/12/03 03:13:32;;;;;;;26.20;11.13;;;;;;;;;;4364841;32;20539;-81
2020/12/03 03:15:57;;;;;;;28.83;11.90;;;;;;;;;;4377394;32;20450;-81
2020/12/03 03:18:22;;;;;;;25.20;11.20;;;;;;;;;;4364142;32;20163;-81
2020/12/03 03:20:48;;;;;;;22.93;11.90;;;;;;;;;;4364208;32;20658;-81
2020/12/03 03:23:15;;;;;;;31.67;11.67;;;;;;;;;;4364203;32;20564;-82
2020/12/03 03:25:40;;;;;;;26.00;12.13;;;;;;;;;;4363986;32;20584;-82
2020/12/03 03:28:05;;;;;;;28.33;12.23;;;;;;;;;;4364556;32;20231;-81
2020/12/03 03:30:31;;;;;;;27.77;13.40;;;;;;;;;;4363774;32;20603;-81
2020/12/03 03:32:56;;;;;;;26.57;14.10;;;;;;;;;;4364219;32;20488;-81
2020/12/03 03:35:21;;;;;;;31.87;14.67;;;;;;;;;;4363527;32;20170;-81
2020/12/03 03:37:47;;;;;;;27.40;15.13;;;;;;;;;;4377306;32;20138;-81
2020/12/03 03:40:13;;;;;;;35.83;15.03;;;;;;;;;;4378139;32;20177;-81
2020/12/03 03:42:38;;;;;;;33.73;15.60;;;;;;;;;;4363557;32;20185;-81
2020/12/03 03:45:04;;;;;;;32.97;16.60;;;;;;;;;;4363508;32;20175;-81
2020/12/03 03:47:29;;;;;;;34.13;17.20;;;;;;;;;;4363344;32;20484;-81
2020/12/03 03:49:55;;;;;;;36.27;16.60;;;;;;;;;;4363387;32;20192;-81
2020/12/03 03:52:20;;;;;;;31.50;16.00;;;;;;;;;;4363643;32;20261;-81
2020/12/03 03:54:45;;;;;;;32.93;16.57;;;;;;;;;;4367604;32;20189;-81
2020/12/03 03:57:10;;;;;;;33.00;16.53;;;;;;;;;;4380613;32;20174;-81
2020/12/03 03:59:36;;;;;;;37.77;17.83;;;;;;;;;;4363612;32;20600;-82
2020/12/03 04:02:04;;;;;;;30.27;16.90;;;;;;;;;;4364439;32;20194;-81
2020/12/03 04:04:29;;;;;;;40.13;18.40;;;;;;;;;;4363475;32;20193;-81
2020/12/03 04:06:55;;;;;;;32.27;17.50;;;;;;;;;;4362748;32;20167;-81
2020/12/03 04:09:20;;;;;;;41.87;20.37;;;;;;;;;;4377240;32;20200;-81
2020/12/03 04:11:45;;;;;;;34.47;17.83;;;;;;;;;;4363211;32;20171;-81
2020/12/03 04:14:11;;;;;;;30.23;19.03;;;;;;;;;;4363051;32;20589;-81
2020/12/03 04:16:36;;;;;;;40.07;19.10;;;;;;;;;;4364131;32;20238;-81
2020/12/03 04:19:01;;;;;;;39.10;19.77;;;;;;;;;;4363535;32;20506;-81
2020/12/03 04:21:27;;;;;;;35.03;21.20;;;;;;;;;;4363166;32;20170;-80
2020/12/03 04:23:52;;;;;;;39.00;20.60;;;;;;;;;;4363276;32;20183;-80
2020/12/03 04:26:17;;;;;;;39.10;20.63;;;;;;;;;;4376526;32;20147;-81
2020/12/03 04:28:42;;;;;;;39.70;21.20;;;;;;;;;;4376696;32;20142;-80
2020/12/03 04:31:08;;;;;;;40.97;21.13;;;;;;;;;;4363456;32;20695;-80
2020/12/03 04:33:33;;;;;;;40.37;22.07;;;;;;;;;;4376407;32;20147;-81
2020/12/03 04:35:59;;;;;;;38.67;21.87;;;;;;;;;;4363069;32;20193;-80
2020/12/03 04:38:24;;;;;;;42.63;22.80;;;;;;;;;;4363890;32;20197;-81
2020/12/03 04:40:50;;;;;;;44.27;23.80;;;;;;;;;;4363049;32;20167;-81
2020/12/03 04:43:21;;;;;;;46.63;22.00;;;;;;;;;;4362829;32;20178;-81
2020/12/03 04:45:51;;;;;;;45.27;22.90;;;;;;;;;;4363294;32;20596;-81
2020/12/03 04:48:39;;;;;;;42.43;23.13;;;;;;;;;;4376822;32;20158;-80
2020/12/03 04:51:13;;;;;;;43.73;22.10;;;;;;;;;;4376610;32;20164;-81
2020/12/03 04:53:42;;;;;;;43.13;23.20;;;;;;;;;;4362620;32;20166;-81
2020/12/03 04:56:17;;;;;;;46.47;22.93;;;;;;;;;;4363496;32;20167;-81
2020/12/03 04:58:47;;;;;;;42.43;23.00;;;;;;;;;;4377585;32;20570;-80
2020/12/03 05:01:31;;;;;;;45.67;23.33;;;;;;;;;;4362420;32;20167;-81
2020/12/03 05:04:23;;;;;;;48.90;24.37;;;;;;;;;;4362449;32;20163;-81
2020/12/03 05:06:54;;;;;;;42.00;22.43;;;;;;;;;;4359700;32;20171;-81
2020/12/03 05:09:21;;;;;;;51.03;23.87;;;;;;;;;;4376584;32;20130;-80
2020/12/03 05:11:52;;;;;;;38.70;23.43;;;;;;;;;;4362468;32;20520;-81
2020/12/03 05:14:27;;;;;;;44.90;22.77;;;;;;;;;;4362081;32;20252;-80
2020/12/03 05:16:59;;;;;;;52.10;26.27;;;;;;;;;;4362113;32;20189;-80
2020/12/03 05:19:25;;;;;;;46.37;23.70;;;;;;;;;;4375495;32;20138;-81
2020/12/03 05:21:50;;;;;;;52.07;24.83;;;;;;;;;;4376230;32;20171;-80
2020/12/03 05:24:15;;;;;;;45.57;24.53;;;;;;;;;;4376072;32;20159;-82
2020/12/03 05:26:40;;;;;;;46.23;23.57;;;;;;;;;;4361961;32;20199;-81
2020/12/03 05:29:07;;;;;;;44.70;23.03;;;;;;;;;;4361949;32;20185;-81
2020/12/03 05:31:41;;;;;;;42.87;24.07;;;;;;;;;;4361901;32;20242;-80
2020/12/03 05:34:14;;;;;;;44.67;23.57;;;;;;;;;;4362802;32;20576;-81
2020/12/03 05:36:39;;;;;;;44.67;23.47;;;;;;;;;;4375559;32;20158;-82
2020/12/03 05:39:07;;;;;;;47.27;24.40;;;;;;;;;;4361892;32;20170;-81
2020/12/03 05:41:35;;;;;;;45.13;24.07;;;;;;;;;;4361903;32;20216;-81
2020/12/03 05:44:04;;;;;;;48.50;24.00;;;;;;;;;;4361761;32;20167;-81
2020/12/03 05:46:30;;;;;;;45.33;25.00;;;;;;;;;;4375512;32;20143;-81
2020/12/03 05:48:59;;;;;;;48.37;23.90;;;;;;;;;;4375301;32;20184;-80
2020/12/03 05:51:27;;;;;;;43.33;22.90;;;;;;;;;;4362233;32;20174;-80
2020/12/03 05:54:00;;;;;;;42.40;24.20;;;;;;;;;;4362017;32;20185;-81
2020/12/03 05:56:26;;;;;;;42.03;24.07;;;;;;;;;;4375200;32;20142;-82
2020/12/03 05:58:51;;;;;;;44.80;24.60;;;;;;;;;;4361708;32;20236;-82
2020/12/03 06:01:18;;;;;;;40.20;22.97;;;;;;;;;;4361560;32;20205;-82
2020/12/03 06:03:59;;;;;;;41.33;22.37;;;;;;;;;;4362151;32;20171;-81
2020/12/03 06:06:36;;;;;;;41.90;21.87;;;;;;;;;;4361773;32;20163;-81
2020/12/03 06:09:01;;;;;;;41.47;22.17;;;;;;;;;;4361454;32;20235;-81
2020/12/03 06:11:30;;;;;;;42.23;21.63;;;;;;;;;;4361487;32;20163;-80
2020/12/03 06:14:01;;;;;;;38.17;22.60;;;;;;;;;;4375498;32;20139;-81
2020/12/03 06:16:35;;;;;;;39.67;20.93;;;;;;;;;;4362077;32;20159;-81
2020/12/03 06:19:02;;;;;;;44.47;23.03;;;;;;;;;;4362177;32;20163;-82
2020/12/03 06:21:32;;;;;;;42.03;22.93;;;;;;;;;;4361823;32;20162;-81
2020/12/03 06:24:02;;;;;;;42.97;22.97;;;;;;;;;;4361685;32;20175;-78
2020/12/03 06:26:48;;;;;;;45.97;22.50;;;;;;;;;;4361638;32;20171;-80
2020/12/03 06:29:32;;;;;;;45.23;23.87;;;;;;;;;;4361867;32;20162;-81
2020/12/03 06:32:16;;;;;;;48.23;25.27;;;;;;;;;;4374692;32;20547;-82
2020/12/03 06:34:43;;;;;;;50.37;25.77;;;;;;;;;;4361772;32;20232;-81
2020/12/03 06:37:38;;;;;;;48.53;26.03;;;;;;;;;;4361251;32;20193;-81
2020/12/03 06:40:07;;;;;;;49.67;23.60;;;;;;;;;;4351836;32;20250;-82
2020/12/03 06:42:41;;;;;;;55.53;25.97;;;;;;;;;;4375095;32;20139;-82
2020/12/03 06:45:09;;;;;;;49.20;25.80;;;;;;;;;;4361996;32;20294;-81
2020/12/03 06:47:48;;;;;;;47.93;25.60;;;;;;;;;;4360660;32;20242;-82
2020/12/03 06:50:26;;;;;;;46.50;24.50;;;;;;;;;;4361747;32;20203;-82
2020/12/03 06:52:57;;;;;;;50.37;24.13;;;;;;;;;;4361480;32;20225;-82
2020/12/03 06:55:45;;;;;;;48.73;23.93;;;;;;;;;;4360891;32;20182;-81
2020/12/03 06:58:21;;;;;;;45.73;23.77;;;;;;;;;;4375386;32;20175;-80
2020/12/03 07:01:05;;;;;;;47.87;24.93;;;;;;;;;;4361539;32;20611;-82
2020/12/03 07:03:37;;;;;;;52.73;24.73;;;;;;;;;;4360900;32;20252;-80
2020/12/03 07:06:05;;;;;;;47.53;24.23;;;;;;;;;;4374770;32;20570;-80
2020/12/03 07:08:39;;;;;;;47.40;24.20;;;;;;;;;;4360989;32;20588;-82
2020/12/03 07:11:26;;;;;;;51.20;24.33;;;;;;;;;;4361766;32;20188;-81
2020/12/03 07:14:04;;;;;;;47.33;24.37;;;;;;;;;;4360566;32;20266;-80
2020/12/03 07:16:48;;;;;;;51.60;24.80;;;;;;;;;;4360964;32;20163;-83
2020/12/03 07:19:25;;;;;;;53.37;25.73;;;;;;;;;;4360453;32;20475;-82
2020/12/03 07:22:00;;;;;;;55.33;26.07;;;;;;;;;;4361214;32;20453;-82
2020/12/03 07:24:28;;;;;;;54.27;25.07;;;;;;;;;;4360524;32;20608;-81
2020/12/03 07:27:06;;;;;;;59.73;27.80;;;;;;;;;;4374318;32;20618;-81
2020/12/03 07:29:51;;;;;;;53.77;26.37;;;;;;;;;;4360697;32;20214;-81
2020/12/03 07:32:37;;;;;;;54.10;24.60;;;;;;;;;;4361097;32;20630;-80
2020/12/03 07:35:17;;;;;;;61.90;27.23;;;;;;;;;;4360631;32;20171;-82
2020/12/03 07:37:50;;;;;;;56.87;26.27;;;;;;;;;;4361933;32;20163;-80
2020/12/03 07:40:19;;;;;;;58.53;26.83;;;;;;;;;;4360643;32;20174;-80
2020/12/03 07:42:44;;;;;;;55.80;25.53;;;;;;;;;;4377518;32;20488;-81
2020/12/03 07:45:25;;;;;;;61.17;27.07;;;;;;;;;;4363382;32;20298;-84
2020/12/03 07:48:09;;;;;;;58.93;25.67;;;;;;;;;;4362837;32;20234;-82
2020/12/03 07:50:37;;;;;;;54.80;24.67;;;;;;;;;;4363115;32;20170;-81
2020/12/03 07:53:14;;;;;;;53.80;26.63;;;;;;;;;;4363224;32;20618;-81
2020/12/03 07:55:40;;;;;;;58.77;26.63;;;;;;;;;;4377247;32;20169;-82
2020/12/03 07:58:25;;;;;;;53.27;24.03;;;;;;;;;;4376811;32;20130;-81
2020/12/03 08:00:53;;;;;;;52.90;24.27;;;;;;;;;;4375780;32;20190;-81
2020/12/03 08:03:38;;;;;;;53.60;23.33;;;;;;;;;;4376113;32;20591;-81
2020/12/03 08:06:13;;;;;;;49.63;22.33;;;;;;;;;;4348461;33;20182;-82
2020/12/03 08:08:39;;;;;;;44.43;21.57;;;;;;;;;;4348331;33;20202;-81
2020/12/03 08:11:06;;;;;;;47.53;23.13;;;;;;;;;;4348249;33;20205;-81
2020/12/03 08:13:36;;;;;;;41.70;21.10;;;;;;;;;;4348642;33;20232;-81
2020/12/03 08:16:03;;;;;;;40.67;20.63;;;;;;;;;;4347750;33;20191;-80
2020/12/03 08:18:36;;;;;;;37.87;19.10;;;;;;;;;;4348218;33;20242;-81
2020/12/03 08:21:01;;;;;;;36.53;18.23;;;;;;;;;;4347755;33;20654;-82
2020/12/03 08:23:27;;;;;;;32.97;17.73;;;;;;;;;;4348018;33;20162;-80
2020/12/03 08:26:12;;;;;;;35.87;17.53;;;;;;;;;;4347658;33;20167;-80
2020/12/03 08:28:37;;;;;;;30.90;15.93;;;;;;;;;;4347861;33;20234;-81
2020/12/03 08:31:02;;;;;;;33.10;16.00;;;;;;;;;;4361543;32;20136;-80
2020/12/03 08:33:34;;;;;;;28.30;14.70;;;;;;;;;;4348006;33;20229;-80
2020/12/03 08:36:01;;;;;;;29.37;15.03;;;;;;;;;;4348059;33;20155;-80
2020/12/03 08:38:32;;;;;;;28.00;15.03;;;;;;;;;;4347548;33;20159;-80
2020/12/03 08:41:00;;;;;;;27.13;13.83;;;;;;;;;;4360772;32;20147;-81
2020/12/03 08:43:26;;;;;;;29.13;15.93;;;;;;;;;;4348193;33;20596;-81
2020/12/03 08:46:08;;;;;;;26.43;14.73;;;;;;;;;;4347871;32;20301;-80
2020/12/03 08:48:36;;;;;;;25.67;14.73;;;;;;;;;;4363043;32;20190;-80
2020/12/03 08:51:04;;;;;;;25.47;14.73;;;;;;;;;;4362376;32;20198;-81
2020/12/03 08:53:32;;;;;;;24.33;14.27;;;;;;;;;;4376085;32;20165;-82
2020/12/03 08:56:24;;;;;;;24.17;13.30;;;;;;;;;;4361961;32;20220;-81
2020/12/03 08:59:09;;;;;;;28.07;14.07;;;;;;;;;;4358648;32;20178;-80
2020/12/03 09:01:36;;;;;;;23.20;13.77;;;;;;;;;;4362621;32;20167;-82
2020/12/03 09:04:02;;;;;;;25.47;14.50;;;;;;;;;;4362113;32;20261;-80
2020/12/03 09:06:31;;;;;;;28.33;15.07;;;;;;;;;;4362197;32;20242;-81
2020/12/03 09:08:56;;;;;;;28.20;16.13;;;;;;;;;;4362006;32;20185;-82
2020/12/03 09:11:23;;;;;;;29.83;16.80;;;;;;;;;;4361884;32;20182;-83
2020/12/03 09:13:52;;;;;;;30.30;16.83;;;;;;;;;;4362533;32;20190;-80
2020/12/03 09:16:19;;;;;;;30.13;16.50;;;;;;;;;;4362161;32;20174;-82
2020/12/03 09:18:48;;;;;;;28.60;16.40;;;;;;;;;;4361509;32;20197;-80
2020/12/03 09:21:13;;;;;;;31.07;16.73;;;;;;;;;;4361635;32;20234;-81
2020/12/03 09:23:45;;;;;;;28.83;17.57;;;;;;;;;;4361580;32;20240;-83
2020/12/03 09:26:15;;;;;;;34.23;18.40;;;;;;;;;;4362089;32;20195;-82
2020/12/03 09:28:43;;;;;;;32.37;18.60;;;;;;;;;;4362082;32;20171;-84
2020/12/03 09:31:09;;;;;;;39.83;20.57;;;;;;;;;;4361571;32;20171;-81
2020/12/03 09:33:37;;;;;;;34.37;19.77;;;;;;;;;;4361662;32;20166;-78
2020/12/03 09:36:02;;;;;;;33.50;19.07;;;;;;;;;;4361803;32;20193;-78
2020/12/03 09:38:28;;;;;;;42.20;23.37;;;;;;;;;;4375658;32;20147;-78
2020/12/03 09:40:54;;;;;;;40.57;23.20;;;;;;;;;;4361579;32;20209;-78
2020/12/03 09:43:21;;;;;;;39.80;22.00;;;;;;;;;;4361357;32;20166;-78
2020/12/03 09:45:51;;;;;;;43.30;23.10;;;;;;;;;;4361958;32;20603;-79
2020/12/03 09:48:18;;;;;;;46.73;24.83;;;;;;;;;;4361658;32;20189;-79
2020/12/03 09:50:45;;;;;;;50.37;27.07;;;;;;;;;;4361758;32;20164;-79
2020/12/03 09:53:17;;;;;;;49.83;26.10;;;;;;;;;;4361299;32;20163;-80
2020/12/03 09:55:43;;;;;;;51.80;27.10;;;;;;;;;;4361691;32;20166;-79
2020/12/03 09:58:08;;;;;;;49.63;26.93;;;;;;;;;;4361458;32;20167;-81
2020/12/03 10:00:38;;;;;;;51.83;28.47;;;;;;;;;;4361970;32;20170;-80
2020/12/03 10:03:23;;;;;;;51.37;26.77;;;;;;;;;;4361302;32;20170;-79
2020/12/03 10:05:55;;;;;;;49.60;26.87;;;;;;;;;;4360983;32;20170;-80
2020/12/03 10:08:39;;;;;;;48.20;26.50;;;;;;;;;;4361077;32;20189;-80
2020/12/03 10:11:12;;;;;;;45.77;26.70;;;;;;;;;;4360920;32;20183;-80
2020/12/03 10:13:56;;;;;;;44.10;27.70;;;;;;;;;;4361037;32;20166;-79
2020/12/03 10:16:23;;;;;;;50.27;29.03;;;;;;;;;;4374943;32;20170;-80
2020/12/03 10:18:49;;;;;;;48.63;27.80;;;;;;;;;;4361332;32;20246;-80
2020/12/03 10:21:19;;;;;;;51.93;28.53;;;;;;;;;;4360892;32;20227;-79
2020/12/03 10:23:50;;;;;;;47.63;27.80;;;;;;;;;;4360746;32;20226;-79
2020/12/03 10:26:31;;;;;;;41.87;25.13;;;;;;;;;;4361169;32;20189;-79
2020/12/03 10:29:06;;;;;;;43.80;23.87;;;;;;;;;;4374780;32;20464;-78
2020/12/03 10:31:32;;;;;;;38.40;23.50;;;;;;;;;;4361372;32;20194;-79
2020/12/03 10:33:59;;;;;;;39.80;23.93;;;;;;;;;;4361163;32;20647;-80
2020/12/03 10:36:34;;;;;;;48.20;26.10;;;;;;;;;;4360963;32;20193;-79
2020/12/03 10:39:01;;;;;;;41.33;24.70;;;;;;;;;;4361106;32;20504;-79
2020/12/03 10:41:31;;;;;;;41.63;25.00;;;;;;;;;;4360885;32;20167;-80
2020/12/03 10:44:02;;;;;;;42.13;24.43;;;;;;;;;;4360601;32;20189;-80
2020/12/03 10:46:30;;;;;;;44.13;25.60;;;;;;;;;;4360919;32;20185;-80
2020/12/03 10:49:17;;;;;;;43.53;26.20;;;;;;;;;;4361694;32;20155;-80
2020/12/03 10:52:01;;;;;;;47.17;26.27;;;;;;;;;;4361434;32;20163;-81
2020/12/03 10:54:31;;;;;;;47.53;25.97;;;;;;;;;;4362124;32;20178;-80
2020/12/03 10:57:25;;;;;;;45.30;25.93;;;;;;;;;;4362642;32;20182;-80
2020/12/03 10:59:52;;;;;;;44.73;25.20;;;;;;;;;;4360783;32;20190;-80
2020/12/03 11:02:20;;;;;;;45.63;26.43;;;;;;;;;;4360996;32;20592;-79
2020/12/03 11:04:45;;;;;;;48.53;26.50;;;;;;;;;;4374202;32;20150;-80
2020/12/03 11:07:12;;;;;;;43.67;25.73;;;;;;;;;;4360682;32;20493;-81
2020/12/03 11:09:41;;;;;;;42.97;24.97;;;;;;;;;;4374246;32;20142;-79
2020/12/03 11:12:07;;;;;;;42.83;24.90;;;;;;;;;;4374293;32;20163;-79
2020/12/03 11:14:34;;;;;;;48.90;25.80;;;;;;;;;;4389330;32;20552;-78
2020/12/03 11:17:03;;;;;;;46.07;25.70;;;;;;;;;;4391184;32;20143;-78
2020/12/03 11:19:29;;;;;;;43.80;25.43;;;;;;;;;;4379031;32;20200;-78
2020/12/03 11:22:22;;;;;;;42.77;25.23;;;;;;;;;;4378905;32;20216;-79
2020/12/03 11:24:48;;;;;;;46.70;25.57;;;;;;;;;;4392297;32;20154;-79
2020/12/03 11:27:17;;;;;;;47.23;24.90;;;;;;;;;;4378426;32;20173;-78
2020/12/03 11:29:43;;;;;;;45.10;25.73;;;;;;;;;;4378278;32;20220;-79
2020/12/03 11:32:08;;;;;;;41.37;23.83;;;;;;;;;;4378522;32;20588;-79
2020/12/03 11:34:37;;;;;;;45.57;24.83;;;;;;;;;;4377813;32;20166;-79
2020/12/03 11:37:02;;;;;;;55.27;26.97;;;;;;;;;;4378507;32;20166;-77
2020/12/03 11:39:32;;;;;;;43.57;24.37;;;;;;;;;;4378807;32;20641;-79
2020/12/03 11:42:17;;;;;;;42.70;24.00;;;;;;;;;;4378591;32;20166;-78
2020/12/03 11:45:04;;;;;;;47.20;24.83;;;;;;;;;;4391676;32;20161;-79
2020/12/03 11:50:12;;;;;;;39.17;21.67;;;;;;;;;;4391657;32;20865;-78
2020/12/03 11:52:37;;;;;;;37.30;21.27;;;;;;;;;;4392100;32;20544;-79
2020/12/03 11:55:15;;;;;;;38.30;20.00;;;;;;;;;;4377797;32;20241;-79
2020/12/03 11:57:40;;;;;;;36.87;20.80;;;;;;;;;;4377892;32;20166;-79
2020/12/03 12:00:14;;;;;;;32.40;19.03;;;;;;;;;;4391520;32;20599;-78
2020/12/03 12:02:39;;;;;;;34.13;18.40;;;;;;;;;;4378148;32;20482;-79
2020/12/03 12:05:08;;;;;;;28.47;17.43;;;;;;;;;;4371361;32;20193;-79
2020/12/03 12:07:50;;;;;;;30.40;17.87;;;;;;;;;;4362556;32;20232;-78
2020/12/03 12:10:22;;;;;;;27.67;16.87;;;;;;;;;;4376672;32;20169;-79
2020/12/03 12:12:48;;;;;;;26.50;15.37;;;;;;;;;;4363209;32;20290;-80
2020/12/03 12:15:17;;;;;;;29.13;17.53;;;;;;;;;;4375859;32;20158;-78
2020/12/03 12:17:42;;;;;;;29.77;16.50;;;;;;;;;;4362586;32;20664;-78
2020/12/03 12:20:11;;;;;;;30.87;18.03;;;;;;;;;;4362495;32;20167;-79
2020/12/03 12:22:40;;;;;;;29.50;17.50;;;;;;;;;;4362350;32;20167;-78
2020/12/03 12:25:07;;;;;;;31.20;17.77;;;;;;;;;;4362383;32;20178;-78
2020/12/03 12:27:32;;;;;;;29.70;16.93;;;;;;;;;;4359418;32;20202;-79
2020/12/03 12:29:57;;;;;;;30.40;17.50;;;;;;;;;;4359785;32;20175;-78
2020/12/03 12:32:22;;;;;;;32.07;18.17;;;;;;;;;;4363867;32;20476;-78
2020/12/03 12:34:48;;;;;;;30.97;17.87;;;;;;;;;;4362159;32;20193;-79
2020/12/03 12:37:13;;;;;;;29.90;17.23;;;;;;;;;;4362251;32;20195;-79
2020/12/03 12:39:41;;;;;;;30.60;17.30;;;;;;;;;;4361807;32;20171;-78
2020/12/03 12:42:07;;;;;;;30.27;17.60;;;;;;;;;;4361860;32;20193;-77
2020/12/03 12:44:33;;;;;;;28.67;15.60;;;;;;;;;;4361837;32;20252;-79
2020/12/03 12:47:05;;;;;;;26.80;15.20;;;;;;;;;;4362145;32;20174;-78
2020/12/03 12:49:34;;;;;;;25.43;14.80;;;;;;;;;;4369211;32;20240;-78
2020/12/03 12:51:59;;;;;;;29.37;16.33;;;;;;;;;;4365621;32;20185;-79
2020/12/03 12:54:24;;;;;;;27.30;15.70;;;;;;;;;;4361474;32;20166;-78
2020/12/03 12:56:56;;;;;;;28.77;16.00;;;;;;;;;;4361901;32;20178;-79
2020/12/03 12:59:22;;;;;;;28.93;14.73;;;;;;;;;;4361450;32;20206;-79
2020/12/03 13:01:48;;;;;;;22.43;15.00;;;;;;;;;;4375503;32;20190;-79
2020/12/03 13:04:14;;;;;;;26.87;14.70;;;;;;;;;;4361965;32;20166;-79
2020/12/03 13:06:40;;;;;;;23.83;14.83;;;;;;;;;;4375284;32;20150;-77
2020/12/03 13:09:05;;;;;;;28.03;15.07;;;;;;;;;;4360788;32;20186;-77
2020/12/03 13:11:31;;;;;;;26.80;14.13;;;;;;;;;;4363194;32;20667;-79
2020/12/03 13:13:59;;;;;;;24.63;14.30;;;;;;;;;;4362509;32;20489;-79
2020/12/03 13:16:24;;;;;;;27.00;13.67;;;;;;;;;;4388041;32;20165;-78
2020/12/03 13:18:50;;;;;;;25.47;14.17;;;;;;;;;;4365579;32;20177;-78
2020/12/03 13:21:15;;;;;;;25.53;14.70;;;;;;;;;;4365833;32;20182;-79
2020/12/03 13:23:40;;;;;;;24.63;13.37;;;;;;;;;;4360849;32;20178;-79
2020/12/03 13:26:06;;;;;;;27.43;14.33;;;;;;;;;;4356858;32;20174;-79
2020/12/03 13:28:31;;;;;;;25.47;13.83;;;;;;;;;;4361536;32;20225;-79
2020/12/03 13:30:56;;;;;;;24.13;14.10;;;;;;;;;;4374947;32;20150;-79
2020/12/03 13:33:24;;;;;;;27.60;15.57;;;;;;;;;;4375390;32;20532;-79
2020/12/03 13:35:50;;;;;;;24.27;13.30;;;;;;;;;;4374806;32;20139;-78
2020/12/03 13:38:16;;;;;;;26.13;14.20;;;;;;;;;;4361139;32;20588;-78
2020/12/03 13:40:44;;;;;;;24.23;13.40;;;;;;;;;;4374301;32;20210;-78
2020/12/03 13:43:09;;;;;;;23.83;12.83;;;;;;;;;;4360980;32;20201;-78
2020/12/03 13:45:35;;;;;;;27.03;13.63;;;;;;;;;;4361186;32;20174;-79
2020/12/03 13:48:00;;;;;;;23.40;13.53;;;;;;;;;;4361152;32;20179;-79
2020/12/03 13:50:25;;;;;;;20.40;13.13;;;;;;;;;;4361429;32;20251;-79
2020/12/03 13:52:50;;;;;;;23.63;12.53;;;;;;;;;;4361983;32;20202;-78
2020/12/03 13:55:16;;;;;;;22.27;13.30;;;;;;;;;;4361134;32;20301;-79
2020/12/03 13:57:42;;;;;;;21.83;11.33;;;;;;;;;;4361292;32;20202;-79
2020/12/03 14:00:07;;;;;;;21.13;12.37;;;;;;;;;;4361552;32;20592;-78
2020/12/03 14:02:34;;;;;;;21.60;12.83;;;;;;;;;;4361111;32;20237;-79
2020/12/03 14:05:00;;;;;;;24.43;14.10;;;;;;;;;;4362062;32;20166;-80
2020/12/03 14:07:25;;;;;;;24.57;12.60;;;;;;;;;;4361024;32;20181;-79
2020/12/03 14:09:51;;;;;;;24.07;12.90;;;;;;;;;;4361558;32;20347;-79
2020/12/03 14:12:17;;;;;;;20.97;11.40;;;;;;;;;;4360885;32;20689;-80
2020/12/03 14:14:45;;;;;;;23.13;14.00;;;;;;;;;;4349071;32;20167;-79
2020/12/03 14:17:11;;;;;;;20.00;10.17;;;;;;;;;;4361099;32;20202;-78
2020/12/03 14:19:36;;;;;;;16.00;9.00;;;;;;;;;;4361292;32;20159;-79
2020/12/03 14:22:02;;;;;;;17.73;10.70;;;;;;;;;;4361650;32;20265;-80
2020/12/03 14:24:28;;;;;;;16.93;9.27;;;;;;;;;;4348431;32;20524;-81
2020/12/03 14:26:53;;;;;;;17.47;9.20;;;;;;;;;;4360517;32;20154;-80
2020/12/03 14:29:19;;;;;;;16.70;8.37;;;;;;;;;;4360812;32;20209;-81
2020/12/03 14:31:49;;;;;;;12.23;7.70;;;;;;;;;;4360663;32;20162;-80